Richards, MO

5:08 AM CDT on July 29, 2014 (GMT -0500)
Joplin Regional (KJLN) Elev 981 ft | 37.15 °N, 94.50 °W | Change Station

Current weather conditions updated 15 minutes ago

Clear
Clear
60 °F
Feels Like 60 °F
N
0
Wind Variable Wind from North

Today is forecast to be Cooler than yesterday.

Today
High -- | Low -- °F
--% Chance of Precip.
Yesterday
High -- | Low -- °F
Precip. -- in
6:18 AM 8:30 PM
Waxing Crescent, 5% visible
Pressure 30.14 in
Visibility 10.0 miles
Clouds Clear
Dew Point 57 °F
Humidity 90%
Rainfall 0.00 in
Snow Depth Not available.
UV 0 out of 12
Pollen 6.60 out of 12
Air Quality Not available.
Flu Activity Not available.
METAR KJLN 290953Z AUTO 00000KT 10SM CLR 16/14 A3017 RMK AO2 SLP206 T01560139

More Conditions Fewer Conditions

Pressure 30.14 in
Visibility 10.0 miles
Clouds Clear
Dew Point 57 °F
Humidity 90%
Rainfall 0.00 in
Snow Depth Not available.
UV 0 out of 12
Pollen 6.60 out of 12
Air Quality Not available.
Flu Activity Not available.
METAR KJLN 290953Z AUTO 00000KT 10SM CLR 16/14 A3017 RMK AO2 SLP206 T01560139

More Conditions Fewer Conditions

10-Day Weather Forecast

Almanac

Astronomy

Jul. 29, 2014 Rise Set
Actual Time 6:18 AM CDT 8:30 PM CDT
Civil Twilight 5:49 AM CDT 8:59 PM CDT
Nautical Twilight 5:13 AM CDT 9:35 PM CDT
Astronomical Twilight 4:34 AM CDT 10:14 PM CDT
Moon 8:52 AM CDT 9:46 PM CDT
Length of Visible Light 15h 09m
Length of Day
14h 11m
Tomorrow will be 1m 46s shorter.
Waxing Crescent, 5% of the Moon is Illuminated
Today
Waxing Crescent
Aug 3
First Quarter
Aug 10
Full
Aug 17
Last Quarter
Aug 25
New

Today's Extremes

State Highs State Lows

Community

WunderPhotos

Upload Photos

1,738,675 photos uploaded!

Nearby

Snow Depth

Station Depth Elevation
No new snow has been reported.

Earthquake Activity

City Distance Mag. Time & Date
No recent earthquake activity has been reported nearby.
Minimum magnitude displayed is 2.5.

Coastal Water Temperatures

Place Temperature
No Stations Reporting

Nearby Weather Stations

Station Location Temp. Dew Point Humidity Wind Precip. Elev Updated Type
Vernon Co. EOC, Nevada, MO 63.0 °F 61 °F 92% NNE  at  2.0 mph 0.00 in / hr 900 ft 5:08 AM CDT Rapid Fire
DEAN'S WEATHER STATION, PRESCOTT, KS 60.7 °F 57 °F 89% North  at  1.2 mph 0.00 in / hr 909 ft 5:08 AM CDT Rapid Fire
Nevada, Nevada, MO 56.3 °F 53 °F 90% East  at  0.0 mph 0.00 in / hr 863 ft 6:08 AM EDT Rapid Fire
ASKC DSS, Foster, MO 57.2 °F 57 °F 99% NNE  at  0.0 mph - / hr 778 ft 4:59 AM CDT Normal
RAWS STATE LINE KS, Prescott, KS 59 °F 54 °F 84% WSW  at  1 mph 0.00 in / hr 796 ft 3:47 AM CDT MADIS

Show More Stations Show Fewer Stations